sensor_id;sensor_type;location;lat;lon;timestamp;temperature;humidity
59007;DHT22;44792;52.760;6.726;2023-02-26T00:01:34;1.50;99.90
59007;DHT22;44792;52.760;6.726;2023-02-26T00:04:03;1.50;99.90
59007;DHT22;44792;52.760;6.726;2023-02-26T00:06:32;1.50;99.90
59007;DHT22;44792;52.760;6.726;2023-02-26T00:08:58;1.50;99.90
59007;DHT22;44792;52.760;6.726;2023-02-26T00:11:24;1.50;99.90
59007;DHT22;44792;52.760;6.726;2023-02-26T00:13:50;1.60;99.90
59007;DHT22;44792;52.760;6.726;2023-02-26T00:16:29;1.60;99.90
59007;DHT22;44792;52.760;6.726;2023-02-26T00:18:56;1.70;99.90
59007;DHT22;44792;52.760;6.726;2023-02-26T00:21:24;1.70;99.90
59007;DHT22;44792;52.760;6.726;2023-02-26T00:23:50;1.60;99.90
59007;DHT22;44792;52.760;6.726;2023-02-26T00:26:16;1.50;99.90
59007;DHT22;44792;52.760;6.726;2023-02-26T00:28:42;1.50;99.90
59007;DHT22;44792;52.760;6.726;2023-02-26T00:31:08;1.40;99.90
59007;DHT22;44792;52.760;6.726;2023-02-26T00:33:34;1.30;99.90
59007;DHT22;44792;52.760;6.726;2023-02-26T00:36:51;1.30;99.90
59007;DHT22;44792;52.760;6.726;2023-02-26T00:41:43;1.30;99.90
59007;DHT22;44792;52.760;6.726;2023-02-26T00:44:09;1.30;99.90
59007;DHT22;44792;52.760;6.726;2023-02-26T00:46:48;1.30;99.90
59007;DHT22;44792;52.760;6.726;2023-02-26T00:49:22;1.20;99.90
59007;DHT22;44792;52.760;6.726;2023-02-26T00:52:02;1.20;99.90
59007;DHT22;44792;52.760;6.726;2023-02-26T00:54:30;1.20;99.90
59007;DHT22;44792;52.760;6.726;2023-02-26T00:56:57;1.20;99.90
59007;DHT22;44792;52.760;6.726;2023-02-26T00:59:23;1.20;99.90
59007;DHT22;44792;52.760;6.726;2023-02-26T01:01:50;1.20;99.90
59007;DHT22;44792;52.760;6.726;2023-02-26T01:04:18;1.10;99.90
59007;DHT22;44792;52.760;6.726;2023-02-26T01:06:46;1.10;99.90
59007;DHT22;44792;52.760;6.726;2023-02-26T01:09:26;1.10;99.90
59007;DHT22;44792;52.760;6.726;2023-02-26T01:11:57;1.10;99.90
59007;DHT22;44792;52.760;6.726;2023-02-26T01:14:26;1.00;99.90
59007;DHT22;44792;52.760;6.726;2023-02-26T01:24:47;1.10;99.90
59007;DHT22;44792;52.760;6.726;2023-02-26T01:27:13;1.00;99.90
59007;DHT22;44792;52.760;6.726;2023-02-26T01:29:39;1.00;99.90
59007;DHT22;44792;52.760;6.726;2023-02-26T01:32:16;1.00;99.90
59007;DHT22;44792;52.760;6.726;2023-02-26T01:34:59;0.90;99.90
59007;DHT22;44792;52.760;6.726;2023-02-26T01:40:14;0.90;99.90
59007;DHT22;44792;52.760;6.726;2023-02-26T01:42:43;0.80;99.90
59007;DHT22;44792;52.760;6.726;2023-02-26T01:45:14;0.80;99.90
59007;DHT22;44792;52.760;6.726;2023-02-26T01:47:48;0.80;99.90
59007;DHT22;44792;52.760;6.726;2023-02-26T01:50:21;0.70;99.90
59007;DHT22;44792;52.760;6.726;2023-02-26T01:55:23;0.80;99.90
59007;DHT22;44792;52.760;6.726;2023-02-26T01:57:51;0.70;99.90
59007;DHT22;44792;52.760;6.726;2023-02-26T02:00:18;0.70;99.90
59007;DHT22;44792;52.760;6.726;2023-02-26T02:02:45;0.70;99.90
59007;DHT22;44792;52.760;6.726;2023-02-26T02:05:16;0.70;99.90
59007;DHT22;44792;52.760;6.726;2023-02-26T02:07:42;0.60;99.90
59007;DHT22;44792;52.760;6.726;2023-02-26T02:10:08;0.50;99.90
59007;DHT22;44792;52.760;6.726;2023-02-26T02:12:46;0.50;99.90
59007;DHT22;44792;52.760;6.726;2023-02-26T02:15:29;0.50;99.90
59007;DHT22;44792;52.760;6.726;2023-02-26T02:23:50;0.40;99.90
59007;DHT22;44792;52.760;6.726;2023-02-26T02:31:48;0.30;99.90
59007;DHT22;44792;52.760;6.726;2023-02-26T02:34:23;0.40;99.90
59007;DHT22;44792;52.760;6.726;2023-02-26T02:37:01;0.40;99.90
59007;DHT22;44792;52.760;6.726;2023-02-26T02:39:53;0.40;99.90
59007;DHT22;44792;52.760;6.726;2023-02-26T02:42:37;0.40;99.90
59007;DHT22;44792;52.760;6.726;2023-02-26T02:45:12;0.20;99.90
59007;DHT22;44792;52.760;6.726;2023-02-26T02:47:41;0.40;99.90
59007;DHT22;44792;52.760;6.726;2023-02-26T02:50:17;0.30;99.90
59007;DHT22;44792;52.760;6.726;2023-02-26T02:53:00;0.30;99.90
59007;DHT22;44792;52.760;6.726;2023-02-26T02:55:31;0.40;99.90
59007;DHT22;44792;52.760;6.726;2023-02-26T02:58:05;0.30;99.90
59007;DHT22;44792;52.760;6.726;2023-02-26T03:00:35;0.40;99.90
59007;DHT22;44792;52.760;6.726;2023-02-26T03:03:17;0.40;99.90
59007;DHT22;44792;52.760;6.726;2023-02-26T03:05:44;0.40;99.90
59007;DHT22;44792;52.760;6.726;2023-02-26T03:08:12;0.40;99.90
59007;DHT22;44792;52.760;6.726;2023-02-26T03:10:40;0.40;99.90
59007;DHT22;44792;52.760;6.726;2023-02-26T03:13:14;0.40;99.90
59007;DHT22;44792;52.760;6.726;2023-02-26T03:21:07;0.30;99.90
59007;DHT22;44792;52.760;6.726;2023-02-26T03:23:42;0.30;99.90
59007;DHT22;44792;52.760;6.726;2023-02-26T03:26:18;0.30;99.90
59007;DHT22;44792;52.760;6.726;2023-02-26T03:28:49;0.20;99.90
59007;DHT22;44792;52.760;6.726;2023-02-26T03:34:17;0.10;99.90
59007;DHT22;44792;52.760;6.726;2023-02-26T03:36:50;0.10;99.90
59007;DHT22;44792;52.760;6.726;2023-02-26T03:39:19;0.10;99.90
59007;DHT22;44792;52.760;6.726;2023-02-26T03:41:55;0.20;99.90
59007;DHT22;44792;52.760;6.726;2023-02-26T03:44:30;0.10;99.90
59007;DHT22;44792;52.760;6.726;2023-02-26T03:47:02;0.10;99.90
59007;DHT22;44792;52.760;6.726;2023-02-26T03:49:48;0.10;99.90
59007;DHT22;44792;52.760;6.726;2023-02-26T03:52:15;0.10;99.90
59007;DHT22;44792;52.760;6.726;2023-02-26T03:54:54;0.20;99.90
59007;DHT22;44792;52.760;6.726;2023-02-26T03:57:20;0.10;99.90
59007;DHT22;44792;52.760;6.726;2023-02-26T03:59:45;0.10;99.90
59007;DHT22;44792;52.760;6.726;2023-02-26T04:02:12;0.10;99.90
59007;DHT22;44792;52.760;6.726;2023-02-26T04:05:00;0.10;99.90
59007;DHT22;44792;52.760;6.726;2023-02-26T04:07:27;0.10;99.90
59007;DHT22;44792;52.760;6.726;2023-02-26T04:09:53;0.00;99.90
59007;DHT22;44792;52.760;6.726;2023-02-26T04:12:25;0.00;99.90
59007;DHT22;44792;52.760;6.726;2023-02-26T04:14:52;-0.10;99.90
59007;DHT22;44792;52.760;6.726;2023-02-26T04:17:17;0.00;99.90
59007;DHT22;44792;52.760;6.726;2023-02-26T04:19:43;-0.10;99.90
59007;DHT22;44792;52.760;6.726;2023-02-26T04:22:09;-0.10;99.90
59007;DHT22;44792;52.760;6.726;2023-02-26T04:24:34;-0.10;99.90
59007;DHT22;44792;52.760;6.726;2023-02-26T04:27:00;-0.10;99.90
59007;DHT22;44792;52.760;6.726;2023-02-26T04:29:26;-0.10;99.90
59007;DHT22;44792;52.760;6.726;2023-02-26T04:31:52;-0.10;99.90
59007;DHT22;44792;52.760;6.726;2023-02-26T04:34:18;0.00;99.90
59007;DHT22;44792;52.760;6.726;2023-02-26T04:36:43;-0.10;99.90
59007;DHT22;44792;52.760;6.726;2023-02-26T04:39:09;-0.10;99.90
59007;DHT22;44792;52.760;6.726;2023-02-26T04:41:35;-0.20;99.90
59007;DHT22;44792;52.760;6.726;2023-02-26T04:44:02;-0.10;99.90
59007;DHT22;44792;52.760;6.726;2023-02-26T04:46:28;-0.10;99.90
59007;DHT22;44792;52.760;6.726;2023-02-26T04:48:54;-0.10;99.90
59007;DHT22;44792;52.760;6.726;2023-02-26T04:51:19;0.00;99.90
59007;DHT22;44792;52.760;6.726;2023-02-26T04:53:45;-0.10;99.90
59007;DHT22;44792;52.760;6.726;2023-02-26T04:56:11;0.00;99.90
59007;DHT22;44792;52.760;6.726;2023-02-26T04:58:37;0.00;99.90
59007;DHT22;44792;52.760;6.726;2023-02-26T05:01:02;0.00;99.90
59007;DHT22;44792;52.760;6.726;2023-02-26T05:03:28;-0.10;99.90
59007;DHT22;44792;52.760;6.726;2023-02-26T05:05:54;-0.10;99.90
59007;DHT22;44792;52.760;6.726;2023-02-26T05:08:19;-0.10;99.90
59007;DHT22;44792;52.760;6.726;2023-02-26T05:10:45;-0.10;99.90
59007;DHT22;44792;52.760;6.726;2023-02-26T05:13:10;0.00;99.90
59007;DHT22;44792;52.760;6.726;2023-02-26T05:15:36;0.00;99.90
59007;DHT22;44792;52.760;6.726;2023-02-26T05:18:02;0.00;99.90
59007;DHT22;44792;52.760;6.726;2023-02-26T05:20:28;0.10;99.90
59007;DHT22;44792;52.760;6.726;2023-02-26T05:22:53;0.10;99.90
59007;DHT22;44792;52.760;6.726;2023-02-26T05:25:19;-0.10;99.90
59007;DHT22;44792;52.760;6.726;2023-02-26T05:27:44;-0.20;99.90
59007;DHT22;44792;52.760;6.726;2023-02-26T05:30:13;-0.10;99.90
59007;DHT22;44792;52.760;6.726;2023-02-26T05:32:39;-0.10;99.90
59007;DHT22;44792;52.760;6.726;2023-02-26T05:35:05;-0.20;99.90
59007;DHT22;44792;52.760;6.726;2023-02-26T05:37:31;0.00;99.90
59007;DHT22;44792;52.760;6.726;2023-02-26T05:39:56;0.00;99.90
59007;DHT22;44792;52.760;6.726;2023-02-26T05:42:22;0.00;99.90
59007;DHT22;44792;52.760;6.726;2023-02-26T05:44:47;0.00;99.90
59007;DHT22;44792;52.760;6.726;2023-02-26T05:47:13;-0.20;99.90
59007;DHT22;44792;52.760;6.726;2023-02-26T05:49:38;-0.20;99.90
59007;DHT22;44792;52.760;6.726;2023-02-26T05:52:04;-0.20;99.90
59007;DHT22;44792;52.760;6.726;2023-02-26T05:54:30;-0.20;99.90
59007;DHT22;44792;52.760;6.726;2023-02-26T05:56:55;-0.10;99.90
59007;DHT22;44792;52.760;6.726;2023-02-26T05:59:21;-0.20;99.90
59007;DHT22;44792;52.760;6.726;2023-02-26T06:01:47;-0.10;99.90
59007;DHT22;44792;52.760;6.726;2023-02-26T06:04:12;-0.20;99.90
59007;DHT22;44792;52.760;6.726;2023-02-26T06:06:38;-0.10;99.90
59007;DHT22;44792;52.760;6.726;2023-02-26T06:09:04;-0.10;99.90
59007;DHT22;44792;52.760;6.726;2023-02-26T06:11:30;0.00;99.90
59007;DHT22;44792;52.760;6.726;2023-02-26T06:13:55;0.00;99.90
59007;DHT22;44792;52.760;6.726;2023-02-26T06:16:22;0.00;99.90
59007;DHT22;44792;52.760;6.726;2023-02-26T06:18:48;0.00;99.90
59007;DHT22;44792;52.760;6.726;2023-02-26T06:21:15;0.00;99.90
59007;DHT22;44792;52.760;6.726;2023-02-26T06:23:40;0.00;99.90
59007;DHT22;44792;52.760;6.726;2023-02-26T06:26:06;-0.10;99.90
59007;DHT22;44792;52.760;6.726;2023-02-26T06:28:32;-0.10;99.90
59007;DHT22;44792;52.760;6.726;2023-02-26T06:30:57;-0.20;99.90
59007;DHT22;44792;52.760;6.726;2023-02-26T06:33:23;-0.20;99.90
59007;DHT22;44792;52.760;6.726;2023-02-26T06:35:49;-0.20;99.90
59007;DHT22;44792;52.760;6.726;2023-02-26T06:38:15;-0.20;99.90
59007;DHT22;44792;52.760;6.726;2023-02-26T06:40:41;-0.30;99.90
59007;DHT22;44792;52.760;6.726;2023-02-26T06:43:07;-0.30;99.90
59007;DHT22;44792;52.760;6.726;2023-02-26T06:45:33;-0.30;99.90
59007;DHT22;44792;52.760;6.726;2023-02-26T06:47:59;-0.40;99.90
59007;DHT22;44792;52.760;6.726;2023-02-26T06:50:24;-0.30;99.90
59007;DHT22;44792;52.760;6.726;2023-02-26T06:52:50;-0.40;99.90
59007;DHT22;44792;52.760;6.726;2023-02-26T06:55:15;-0.40;99.90
59007;DHT22;44792;52.760;6.726;2023-02-26T06:57:41;-0.50;99.90
59007;DHT22;44792;52.760;6.726;2023-02-26T07:00:08;-0.50;99.90
59007;DHT22;44792;52.760;6.726;2023-02-26T07:02:34;-0.50;99.90
59007;DHT22;44792;52.760;6.726;2023-02-26T07:05:00;-0.40;99.90
59007;DHT22;44792;52.760;6.726;2023-02-26T07:07:25;-0.30;99.90
59007;DHT22;44792;52.760;6.726;2023-02-26T07:09:51;-0.30;99.90
59007;DHT22;44792;52.760;6.726;2023-02-26T07:12:17;-0.30;99.90
59007;DHT22;44792;52.760;6.726;2023-02-26T07:14:42;-0.40;99.90
59007;DHT22;44792;52.760;6.726;2023-02-26T07:17:10;-0.30;99.90
59007;DHT22;44792;52.760;6.726;2023-02-26T07:19:48;-0.30;99.90
59007;DHT22;44792;52.760;6.726;2023-02-26T07:22:14;-0.20;99.90
59007;DHT22;44792;52.760;6.726;2023-02-26T07:24:41;-0.20;99.90
59007;DHT22;44792;52.760;6.726;2023-02-26T07:27:06;-0.10;99.90
59007;DHT22;44792;52.760;6.726;2023-02-26T07:29:32;-0.10;99.90
59007;DHT22;44792;52.760;6.726;2023-02-26T07:31:58;0.00;99.90
59007;DHT22;44792;52.760;6.726;2023-02-26T07:34:23;0.10;99.90
59007;DHT22;44792;52.760;6.726;2023-02-26T07:36:49;0.20;99.90
59007;DHT22;44792;52.760;6.726;2023-02-26T07:39:14;0.20;99.90
59007;DHT22;44792;52.760;6.726;2023-02-26T07:41:40;0.20;99.90
59007;DHT22;44792;52.760;6.726;2023-02-26T07:44:06;0.20;99.90
59007;DHT22;44792;52.760;6.726;2023-02-26T07:46:31;0.20;99.90
59007;DHT22;44792;52.760;6.726;2023-02-26T07:48:57;0.40;99.90
59007;DHT22;44792;52.760;6.726;2023-02-26T07:51:22;0.40;99.90
59007;DHT22;44792;52.760;6.726;2023-02-26T07:53:48;0.50;99.90
59007;DHT22;44792;52.760;6.726;2023-02-26T07:56:14;0.50;99.90
59007;DHT22;44792;52.760;6.726;2023-02-26T07:58:39;0.50;99.90
59007;DHT22;44792;52.760;6.726;2023-02-26T08:01:05;0.50;99.90
59007;DHT22;44792;52.760;6.726;2023-02-26T08:03:31;0.70;99.90
59007;DHT22;44792;52.760;6.726;2023-02-26T08:05:57;0.70;99.90
59007;DHT22;44792;52.760;6.726;2023-02-26T08:08:25;0.70;99.90
59007;DHT22;44792;52.760;6.726;2023-02-26T08:10:51;0.80;99.90
59007;DHT22;44792;52.760;6.726;2023-02-26T08:13:17;0.90;99.90
59007;DHT22;44792;52.760;6.726;2023-02-26T08:15:42;1.00;99.90
59007;DHT22;44792;52.760;6.726;2023-02-26T08:18:09;1.00;99.90
59007;DHT22;44792;52.760;6.726;2023-02-26T08:20:34;1.20;99.90
59007;DHT22;44792;52.760;6.726;2023-02-26T08:23:00;1.20;99.90
59007;DHT22;44792;52.760;6.726;2023-02-26T08:25:26;1.30;99.90
59007;DHT22;44792;52.760;6.726;2023-02-26T08:27:51;1.40;99.90
59007;DHT22;44792;52.760;6.726;2023-02-26T08:30:17;1.40;99.90
59007;DHT22;44792;52.760;6.726;2023-02-26T08:32:43;1.50;99.90
59007;DHT22;44792;52.760;6.726;2023-02-26T08:35:10;1.60;99.90
59007;DHT22;44792;52.760;6.726;2023-02-26T08:37:37;1.60;99.90
59007;DHT22;44792;52.760;6.726;2023-02-26T08:40:05;1.60;99.90
59007;DHT22;44792;52.760;6.726;2023-02-26T08:42:31;1.70;99.90
59007;DHT22;44792;52.760;6.726;2023-02-26T08:44:56;1.80;99.90
59007;DHT22;44792;52.760;6.726;2023-02-26T08:47:22;1.80;99.90
59007;DHT22;44792;52.760;6.726;2023-02-26T08:49:47;1.80;99.90
59007;DHT22;44792;52.760;6.726;2023-02-26T08:52:13;2.00;99.90
59007;DHT22;44792;52.760;6.726;2023-02-26T08:54:39;1.90;99.90
59007;DHT22;44792;52.760;6.726;2023-02-26T08:57:05;2.00;99.90
59007;DHT22;44792;52.760;6.726;2023-02-26T08:59:30;2.10;99.90
59007;DHT22;44792;52.760;6.726;2023-02-26T09:01:56;2.20;99.90
59007;DHT22;44792;52.760;6.726;2023-02-26T09:04:21;2.10;99.90
59007;DHT22;44792;52.760;6.726;2023-02-26T09:06:47;2.20;99.90
59007;DHT22;44792;52.760;6.726;2023-02-26T09:09:13;2.20;99.90
59007;DHT22;44792;52.760;6.726;2023-02-26T09:11:38;2.30;99.90
59007;DHT22;44792;52.760;6.726;2023-02-26T09:14:05;2.40;99.90
59007;DHT22;44792;52.760;6.726;2023-02-26T09:16:31;2.50;99.90
59007;DHT22;44792;52.760;6.726;2023-02-26T09:18:59;2.50;99.90
59007;DHT22;44792;52.760;6.726;2023-02-26T09:21:25;2.60;99.90
59007;DHT22;44792;52.760;6.726;2023-02-26T09:23:50;2.60;99.90
59007;DHT22;44792;52.760;6.726;2023-02-26T09:26:16;2.70;99.90
59007;DHT22;44792;52.760;6.726;2023-02-26T09:28:42;2.60;99.90
59007;DHT22;44792;52.760;6.726;2023-02-26T09:31:07;2.70;99.90
59007;DHT22;44792;52.760;6.726;2023-02-26T09:33:33;2.70;99.90
59007;DHT22;44792;52.760;6.726;2023-02-26T09:35:58;2.80;99.90
59007;DHT22;44792;52.760;6.726;2023-02-26T09:38:24;2.90;99.90
59007;DHT22;44792;52.760;6.726;2023-02-26T09:40:55;3.00;99.90
59007;DHT22;44792;52.760;6.726;2023-02-26T09:43:59;2.90;99.90
59007;DHT22;44792;52.760;6.726;2023-02-26T09:46:36;3.10;99.90
59007;DHT22;44792;52.760;6.726;2023-02-26T09:49:26;3.10;99.90
59007;DHT22;44792;52.760;6.726;2023-02-26T09:54:48;3.20;99.90
59007;DHT22;44792;52.760;6.726;2023-02-26T09:57:24;3.30;99.90
59007;DHT22;44792;52.760;6.726;2023-02-26T09:59:51;3.30;99.90
59007;DHT22;44792;52.760;6.726;2023-02-26T10:02:46;3.30;99.90
59007;DHT22;44792;52.760;6.726;2023-02-26T10:05:40;3.40;99.90
59007;DHT22;44792;52.760;6.726;2023-02-26T10:08:14;3.50;99.90
59007;DHT22;44792;52.760;6.726;2023-02-26T10:11:07;3.50;99.90
59007;DHT22;44792;52.760;6.726;2023-02-26T10:13:43;3.50;99.90
59007;DHT22;44792;52.760;6.726;2023-02-26T10:16:14;3.50;99.90
59007;DHT22;44792;52.760;6.726;2023-02-26T10:18:48;3.60;99.90
59007;DHT22;44792;52.760;6.726;2023-02-26T10:21:26;3.60;99.90
59007;DHT22;44792;52.760;6.726;2023-02-26T10:24:00;3.60;99.90
59007;DHT22;44792;52.760;6.726;2023-02-26T10:26:36;3.70;99.90
59007;DHT22;44792;52.760;6.726;2023-02-26T10:32:09;3.70;99.90
59007;DHT22;44792;52.760;6.726;2023-02-26T10:34:44;3.80;99.90
59007;DHT22;44792;52.760;6.726;2023-02-26T10:37:18;3.80;99.90
59007;DHT22;44792;52.760;6.726;2023-02-26T10:51:16;4.10;99.90
59007;DHT22;44792;52.760;6.726;2023-02-26T10:53:53;4.10;99.90
59007;DHT22;44792;52.760;6.726;2023-02-26T10:56:25;4.20;99.90
59007;DHT22;44792;52.760;6.726;2023-02-26T10:58:52;4.20;99.90
59007;DHT22;44792;52.760;6.726;2023-02-26T11:01:21;4.20;99.90
59007;DHT22;44792;52.760;6.726;2023-02-26T11:03:52;4.20;99.90
59007;DHT22;44792;52.760;6.726;2023-02-26T11:06:33;4.20;99.90
59007;DHT22;44792;52.760;6.726;2023-02-26T11:09:00;4.20;99.90
59007;DHT22;44792;52.760;6.726;2023-02-26T11:11:53;4.30;99.90
59007;DHT22;44792;52.760;6.726;2023-02-26T11:14:20;4.30;99.90
59007;DHT22;44792;52.760;6.726;2023-02-26T11:16:53;4.30;99.90
59007;DHT22;44792;52.760;6.726;2023-02-26T11:19:25;4.30;99.90
59007;DHT22;44792;52.760;6.726;2023-02-26T11:21:54;4.30;99.90
59007;DHT22;44792;52.760;6.726;2023-02-26T11:24:33;4.30;99.90
59007;DHT22;44792;52.760;6.726;2023-02-26T11:27:00;4.40;99.90
59007;DHT22;44792;52.760;6.726;2023-02-26T11:29:57;4.30;99.90
59007;DHT22;44792;52.760;6.726;2023-02-26T11:32:33;4.40;99.90
59007;DHT22;44792;52.760;6.726;2023-02-26T11:34:59;4.40;99.90
59007;DHT22;44792;52.760;6.726;2023-02-26T11:37:32;4.60;99.90
59007;DHT22;44792;52.760;6.726;2023-02-26T11:40:17;4.60;99.90
59007;DHT22;44792;52.760;6.726;2023-02-26T11:42:51;4.60;99.90
59007;DHT22;44792;52.760;6.726;2023-02-26T11:45:18;4.50;99.90
59007;DHT22;44792;52.760;6.726;2023-02-26T11:47:46;4.50;99.90
59007;DHT22;44792;52.760;6.726;2023-02-26T11:50:15;4.50;99.90
59007;DHT22;44792;52.760;6.726;2023-02-26T11:52:45;4.60;99.90
59007;DHT22;44792;52.760;6.726;2023-02-26T11:55:25;4.60;99.90
59007;DHT22;44792;52.760;6.726;2023-02-26T11:57:53;4.70;99.90
59007;DHT22;44792;52.760;6.726;2023-02-26T12:00:45;4.70;99.90
59007;DHT22;44792;52.760;6.726;2023-02-26T12:03:17;4.80;99.90
59007;DHT22;44792;52.760;6.726;2023-02-26T12:05:43;4.80;99.90
59007;DHT22;44792;52.760;6.726;2023-02-26T12:08:36;4.80;99.90
59007;DHT22;44792;52.760;6.726;2023-02-26T12:33:02;4.90;99.90
59007;DHT22;44792;52.760;6.726;2023-02-26T12:39:12;4.90;99.90
59007;DHT22;44792;52.760;6.726;2023-02-26T12:41:45;4.90;99.90
59007;DHT22;44792;52.760;6.726;2023-02-26T12:47:14;5.00;99.90
59007;DHT22;44792;52.760;6.726;2023-02-26T12:49:49;5.10;99.90
59007;DHT22;44792;52.760;6.726;2023-02-26T12:55:39;5.20;99.90
59007;DHT22;44792;52.760;6.726;2023-02-26T13:03:20;5.30;99.90
59007;DHT22;44792;52.760;6.726;2023-02-26T13:14:09;5.40;99.90
59007;DHT22;44792;52.760;6.726;2023-02-26T13:16:50;5.50;99.90
59007;DHT22;44792;52.760;6.726;2023-02-26T13:22:02;5.60;99.90
59007;DHT22;44792;52.760;6.726;2023-02-26T13:26:58;5.60;99.90
59007;DHT22;44792;52.760;6.726;2023-02-26T13:29:31;5.60;99.90
59007;DHT22;44792;52.760;6.726;2023-02-26T13:32:01;5.60;99.90
59007;DHT22;44792;52.760;6.726;2023-02-26T13:34:43;5.50;99.90
59007;DHT22;44792;52.760;6.726;2023-02-26T13:37:25;5.50;99.90
59007;DHT22;44792;52.760;6.726;2023-02-26T13:42:46;5.40;99.90
59007;DHT22;44792;52.760;6.726;2023-02-26T13:45:44;5.50;99.90
59007;DHT22;44792;52.760;6.726;2023-02-26T13:56:16;5.50;99.90
59007;DHT22;44792;52.760;6.726;2023-02-26T13:58:52;5.60;99.90
59007;DHT22;44792;52.760;6.726;2023-02-26T14:01:26;5.60;99.90
59007;DHT22;44792;52.760;6.726;2023-02-26T14:06:45;5.60;99.90
59007;DHT22;44792;52.760;6.726;2023-02-26T14:22:35;5.60;99.90
59007;DHT22;44792;52.760;6.726;2023-02-26T14:27:45;5.60;99.90
59007;DHT22;44792;52.760;6.726;2023-02-26T14:30:30;5.60;99.90
59007;DHT22;44792;52.760;6.726;2023-02-26T14:35:30;5.70;99.90
59007;DHT22;44792;52.760;6.726;2023-02-26T14:40:32;5.70;99.90
59007;DHT22;44792;52.760;6.726;2023-02-26T14:43:02;5.60;99.90
59007;DHT22;44792;52.760;6.726;2023-02-26T14:45:30;5.50;99.90
59007;DHT22;44792;52.760;6.726;2023-02-26T14:47:58;5.50;99.90
59007;DHT22;44792;52.760;6.726;2023-02-26T14:50:28;5.40;99.90
59007;DHT22;44792;52.760;6.726;2023-02-26T15:23:23;5.50;99.90
59007;DHT22;44792;52.760;6.726;2023-02-26T15:25:52;5.50;99.90
59007;DHT22;44792;52.760;6.726;2023-02-26T15:28:29;5.40;99.90
59007;DHT22;44792;52.760;6.726;2023-02-26T15:30:57;5.30;99.90
59007;DHT22;44792;52.760;6.726;2023-02-26T15:33:24;5.30;99.90
59007;DHT22;44792;52.760;6.726;2023-02-26T15:35:51;5.20;99.90
59007;DHT22;44792;52.760;6.726;2023-02-26T15:38:18;5.30;99.90
59007;DHT22;44792;52.760;6.726;2023-02-26T15:40:44;5.30;99.90
59007;DHT22;44792;52.760;6.726;2023-02-26T15:43:16;5.30;99.90
59007;DHT22;44792;52.760;6.726;2023-02-26T15:45:47;5.30;99.90
59007;DHT22;44792;52.760;6.726;2023-02-26T15:48:16;5.30;99.90
59007;DHT22;44792;52.760;6.726;2023-02-26T15:50:45;5.20;99.90
59007;DHT22;44792;52.760;6.726;2023-02-26T15:53:25;5.10;99.90
59007;DHT22;44792;52.760;6.726;2023-02-26T15:55:54;5.00;99.90
59007;DHT22;44792;52.760;6.726;2023-02-26T15:58:27;5.00;99.90
59007;DHT22;44792;52.760;6.726;2023-02-26T16:00:55;5.00;99.90
59007;DHT22;44792;52.760;6.726;2023-02-26T16:03:26;5.00;99.90
59007;DHT22;44792;52.760;6.726;2023-02-26T16:05:54;4.90;99.90
59007;DHT22;44792;52.760;6.726;2023-02-26T16:08:20;4.90;99.90
59007;DHT22;44792;52.760;6.726;2023-02-26T16:10:45;4.80;99.90
59007;DHT22;44792;52.760;6.726;2023-02-26T16:13:16;4.70;99.90
59007;DHT22;44792;52.760;6.726;2023-02-26T16:15:43;4.70;99.90
59007;DHT22;44792;52.760;6.726;2023-02-26T16:18:14;4.70;99.90
59007;DHT22;44792;52.760;6.726;2023-02-26T16:20:45;4.60;99.90
59007;DHT22;44792;52.760;6.726;2023-02-26T16:23:16;4.60;99.90
59007;DHT22;44792;52.760;6.726;2023-02-26T16:25:48;4.60;99.90
59007;DHT22;44792;52.760;6.726;2023-02-26T16:28:19;4.60;99.90
59007;DHT22;44792;52.760;6.726;2023-02-26T16:30:48;4.60;99.90
59007;DHT22;44792;52.760;6.726;2023-02-26T16:33:16;4.50;99.90
59007;DHT22;44792;52.760;6.726;2023-02-26T16:36:12;4.50;99.90
59007;DHT22;44792;52.760;6.726;2023-02-26T16:38:44;4.40;99.90
59007;DHT22;44792;52.760;6.726;2023-02-26T16:41:11;4.40;99.90
59007;DHT22;44792;52.760;6.726;2023-02-26T16:46:12;4.30;99.90
59007;DHT22;44792;52.760;6.726;2023-02-26T16:48:54;4.30;99.90
59007;DHT22;44792;52.760;6.726;2023-02-26T16:51:23;4.30;99.90
59007;DHT22;44792;52.760;6.726;2023-02-26T16:54:01;4.30;99.90
59007;DHT22;44792;52.760;6.726;2023-02-26T16:56:34;4.20;99.90
59007;DHT22;44792;52.760;6.726;2023-02-26T17:01:35;4.10;99.90
59007;DHT22;44792;52.760;6.726;2023-02-26T17:04:02;4.10;99.90
59007;DHT22;44792;52.760;6.726;2023-02-26T17:06:29;4.00;99.90
59007;DHT22;44792;52.760;6.726;2023-02-26T17:09:00;4.00;99.90
59007;DHT22;44792;52.760;6.726;2023-02-26T17:11:37;4.00;99.90
59007;DHT22;44792;52.760;6.726;2023-02-26T17:14:13;4.00;99.90
59007;DHT22;44792;52.760;6.726;2023-02-26T17:16:43;4.00;99.90
59007;DHT22;44792;52.760;6.726;2023-02-26T17:19:08;4.00;99.90
59007;DHT22;44792;52.760;6.726;2023-02-26T17:21:40;4.00;99.90
59007;DHT22;44792;52.760;6.726;2023-02-26T17:24:06;4.10;99.90
59007;DHT22;44792;52.760;6.726;2023-02-26T17:26:32;4.00;99.90
59007;DHT22;44792;52.760;6.726;2023-02-26T17:28:57;3.90;99.90
59007;DHT22;44792;52.760;6.726;2023-02-26T17:31:23;3.90;99.90
59007;DHT22;44792;52.760;6.726;2023-02-26T17:33:49;3.90;99.90
59007;DHT22;44792;52.760;6.726;2023-02-26T17:36:16;3.90;99.90
59007;DHT22;44792;52.760;6.726;2023-02-26T17:38:44;3.90;99.90
59007;DHT22;44792;52.760;6.726;2023-02-26T17:41:15;3.90;99.90
59007;DHT22;44792;52.760;6.726;2023-02-26T17:43:41;3.90;99.90
59007;DHT22;44792;52.760;6.726;2023-02-26T17:46:09;3.90;99.90
59007;DHT22;44792;52.760;6.726;2023-02-26T17:48:35;3.90;99.90
59007;DHT22;44792;52.760;6.726;2023-02-26T17:51:02;3.90;99.90
59007;DHT22;44792;52.760;6.726;2023-02-26T17:53:27;3.90;99.90
59007;DHT22;44792;52.760;6.726;2023-02-26T17:55:57;3.90;99.90
59007;DHT22;44792;52.760;6.726;2023-02-26T17:58:29;3.90;99.90
59007;DHT22;44792;52.760;6.726;2023-02-26T18:00:56;3.90;99.90
59007;DHT22;44792;52.760;6.726;2023-02-26T18:03:22;3.90;99.90
59007;DHT22;44792;52.760;6.726;2023-02-26T18:05:48;3.90;99.90
59007;DHT22;44792;52.760;6.726;2023-02-26T18:08:32;3.90;99.90
59007;DHT22;44792;52.760;6.726;2023-02-26T18:10:59;3.90;99.90
59007;DHT22;44792;52.760;6.726;2023-02-26T18:13:26;3.80;99.90
59007;DHT22;44792;52.760;6.726;2023-02-26T18:15:52;3.80;99.90
59007;DHT22;44792;52.760;6.726;2023-02-26T18:18:19;3.70;99.90
59007;DHT22;44792;52.760;6.726;2023-02-26T18:20:45;3.80;99.90
59007;DHT22;44792;52.760;6.726;2023-02-26T18:23:11;3.70;99.90
59007;DHT22;44792;52.760;6.726;2023-02-26T18:25:39;3.70;99.90
59007;DHT22;44792;52.760;6.726;2023-02-26T18:28:05;3.70;99.90
59007;DHT22;44792;52.760;6.726;2023-02-26T18:30:34;3.70;99.90
59007;DHT22;44792;52.760;6.726;2023-02-26T18:33:01;3.70;99.90
59007;DHT22;44792;52.760;6.726;2023-02-26T18:35:28;3.60;99.90
59007;DHT22;44792;52.760;6.726;2023-02-26T18:37:54;3.60;99.90
59007;DHT22;44792;52.760;6.726;2023-02-26T18:40:25;3.60;99.90
59007;DHT22;44792;52.760;6.726;2023-02-26T18:42:51;3.60;99.90
59007;DHT22;44792;52.760;6.726;2023-02-26T18:45:18;3.60;99.90
59007;DHT22;44792;52.760;6.726;2023-02-26T18:47:44;3.60;99.90
59007;DHT22;44792;52.760;6.726;2023-02-26T18:50:12;3.50;99.90
59007;DHT22;44792;52.760;6.726;2023-02-26T18:52:38;3.50;99.90
59007;DHT22;44792;52.760;6.726;2023-02-26T18:55:04;3.50;99.90